03:51
Airports
History
Links
Donate
Help keep this website running!
PayPal
Bitcoin
This page is community maintained. The information is intended for PC simulator navigation or reference.
Always use approved charts for navigation.
SDTK
Parati
Parati (SDTK)
Paraty, Rio de Janeiro, Brazil (23970)
(U)
Lat/Lng:23° 13' 28" S / 44° 43' 13" W
-23.224444 / -44.720278
Elevation:10'ft / 3mMSL
ID / ICAO:SDTK
Runways:1
Longest:10-28
Asphalt 708m / 2,323ft
Nearby Weather22:00 GMT 2017-11-23
Nearby weather at SBGW, GUARATINGUETA located 42.9 nautical miles from SDTK
Altimeter: 30.00
Visibility: 6.2 statute miles
Wind: 5 knots (from 040°)
Temp: 21°c / 70°f
Humidity: 73.1%

METAR: SBGW 232200Z 04005KT 9999 BKN030 21/16 Q1016

(Powered by phpweather)
Runway 10 / 28
Dimensions:708.1 x 22.9m 2323' x 75'ft
Surface:Asphalt
Runway 10 [A]Runway 28 [B]
Heading:077°TH 257°TH
Lat:
Lng:
23° 13' 30.44"S
44° 43' 25.08"W
23° 13' 25.56"S
44° 43' 0.92"W
User Notes and Comments
23° 13' 28" S / 44° 43' 13" W
Distance To
Airport ID:
Nearby Airports
(C) Ubatuba 27.1 NM
SDUB SW 236°
4 Ilha dos Porcos Grandes 28.2 NM
SILI ENE 66°
(U) Angra dos Reis 31.4 NM
SDAG NE 56°
(U) FAZENDA PEDRA BRANCA 35.3 NM
SDIL NE 51°
(C) GUARATINGUETA 42.9 NM
SBGW ( WX ) NW 314°
4 Fazenda Bom Jardim 44.3 NM
SDCZ ENE 63°
4 Fazenda Portobello 45.6 NM
SDPA ENE 63°
VFR Chart
Flight Planning at SkyVector.com